createdAt,value
2022-10-22T00:00:51.799Z,56.31
2022-10-22T00:03:38.857Z,56.27
2022-10-22T00:06:11.055Z,56.24
2022-10-22T00:08:42.801Z,56.38
2022-10-22T00:11:17.936Z,56.51
2022-10-22T00:13:50.169Z,56.59
2022-10-22T00:16:21.827Z,56.60
2022-10-22T00:18:53.541Z,56.70
2022-10-22T00:21:25.851Z,56.78
2022-10-22T00:23:57.961Z,56.95
2022-10-22T00:26:29.883Z,56.97
2022-10-22T00:29:01.511Z,57.07
2022-10-22T00:31:33.265Z,57.21
2022-10-22T00:34:05.354Z,57.17
2022-10-22T00:36:36.775Z,57.35
2022-10-22T00:39:08.396Z,57.33
2022-10-22T00:41:40.602Z,57.27
2022-10-22T00:44:43.078Z,57.38
2022-10-22T00:47:15.160Z,57.24
2022-10-22T00:49:47.709Z,57.27
2022-10-22T00:52:19.402Z,57.23
2022-10-22T00:54:52.006Z,57.33
2022-10-22T00:57:23.920Z,57.26
2022-10-22T00:59:58.364Z,57.23
2022-10-22T01:02:30.142Z,57.18
2022-10-22T01:05:02.153Z,57.10
2022-10-22T01:07:36.207Z,57.11
2022-10-22T01:10:17.485Z,57.10
2022-10-22T01:12:58.837Z,57.14
2022-10-22T01:15:38.788Z,57.02
2022-10-22T01:18:18.089Z,57.08
2022-10-22T01:21:15.401Z,56.94
2022-10-22T01:24:17.107Z,56.95
2022-10-22T01:27:01.663Z,57.11
2022-10-22T01:29:40.183Z,57.08
2022-10-22T01:32:16.719Z,57.07
2022-10-22T01:34:52.054Z,57.08
2022-10-22T01:37:27.076Z,57.03
2022-10-22T01:40:01.032Z,56.97
2022-10-22T01:42:32.825Z,56.98
2022-10-22T01:45:11.412Z,57.02
2022-10-22T01:47:57.485Z,56.93
2022-10-22T01:50:43.786Z,56.93
2022-10-22T01:53:37.020Z,56.88
2022-10-22T01:56:24.044Z,56.97
2022-10-22T01:59:04.075Z,56.96
2022-10-22T02:01:43.550Z,56.87
2022-10-22T02:04:20.423Z,56.86
2022-10-22T02:06:56.017Z,56.86
2022-10-22T02:09:30.466Z,56.76
2022-10-22T02:14:45.166Z,56.80
2022-10-22T02:17:20.214Z,56.90
2022-10-22T02:19:56.749Z,56.98
2022-10-22T02:22:29.759Z,57.18
2022-10-22T02:25:01.765Z,57.29
2022-10-22T02:27:39.787Z,57.35
2022-10-22T02:33:00.214Z,57.43
2022-10-22T02:35:32.493Z,57.52
2022-10-22T02:38:05.226Z,57.54
2022-10-22T02:40:37.353Z,57.56
2022-10-22T02:43:09.729Z,57.75
2022-10-22T02:45:43.790Z,57.67
2022-10-22T02:48:15.832Z,57.62
2022-10-22T02:50:47.811Z,57.83
2022-10-22T02:53:19.591Z,57.80
2022-10-22T02:55:51.429Z,57.90
2022-10-22T02:58:23.408Z,58.13
2022-10-22T03:00:55.080Z,58.16
2022-10-22T03:03:27.056Z,58.23
2022-10-22T03:05:58.861Z,58.28
2022-10-22T03:08:30.832Z,58.40
2022-10-22T03:11:02.488Z,58.52
2022-10-22T03:13:34.540Z,58.61
2022-10-22T03:16:06.854Z,58.77
2022-10-22T03:18:38.756Z,58.77
2022-10-22T03:21:16.250Z,58.79
2022-10-22T03:23:49.167Z,58.78
2022-10-22T03:26:21.768Z,58.84
2022-10-22T03:28:54.909Z,58.94
2022-10-22T03:31:26.738Z,58.92
2022-10-22T03:33:59.061Z,58.98
2022-10-22T03:36:30.958Z,59.06
2022-10-22T03:39:03.475Z,59.28
2022-10-22T03:41:35.921Z,59.38
2022-10-22T03:44:08.591Z,59.52
2022-10-22T03:46:40.253Z,59.63
2022-10-22T03:49:11.914Z,59.67
2022-10-22T03:51:44.045Z,59.82
2022-10-22T03:54:16.652Z,59.85
2022-10-22T03:56:48.398Z,59.89
2022-10-22T03:59:20.347Z,59.83
2022-10-22T04:01:52.017Z,59.74
2022-10-22T04:04:24.011Z,59.71
2022-10-22T04:06:55.782Z,59.50
2022-10-22T04:09:27.929Z,59.41
2022-10-22T04:11:59.852Z,59.40
2022-10-22T04:14:31.545Z,59.28
2022-10-22T04:17:03.749Z,59.35
2022-10-22T04:19:36.035Z,59.33
2022-10-22T04:22:07.966Z,59.36
2022-10-22T04:24:39.970Z,59.37
2022-10-22T04:27:11.598Z,59.35
2022-10-22T04:29:44.070Z,59.34
2022-10-22T04:32:16.687Z,59.43
2022-10-22T04:34:48.352Z,59.52
2022-10-22T04:37:20.089Z,59.58
2022-10-22T04:39:52.075Z,59.64
2022-10-22T04:42:23.891Z,59.76
2022-10-22T04:44:55.645Z,59.84
2022-10-22T04:47:27.333Z,59.97
2022-10-22T04:49:58.996Z,60.14
2022-10-22T04:52:32.040Z,60.27
2022-10-22T04:55:03.919Z,60.59
2022-10-22T04:57:35.602Z,60.68
2022-10-22T05:00:09.632Z,60.79
2022-10-22T05:02:44.807Z,60.85
2022-10-22T05:05:16.667Z,61.00
2022-10-22T05:07:48.462Z,60.91
2022-10-22T05:10:20.298Z,61.10
2022-10-22T05:12:52.031Z,61.23
2022-10-22T05:15:23.709Z,61.33
2022-10-22T05:17:55.453Z,61.33
2022-10-22T05:20:27.520Z,61.35
2022-10-22T05:22:59.258Z,61.32
2022-10-22T05:25:31.246Z,61.28
2022-10-22T05:28:03.270Z,61.23
2022-10-22T05:30:35.078Z,61.22
2022-10-22T05:33:07.024Z,61.19
2022-10-22T05:35:38.823Z,61.10
2022-10-22T05:38:10.625Z,61.11
2022-10-22T05:40:42.419Z,61.04
2022-10-22T05:43:14.637Z,60.97
2022-10-22T05:45:46.402Z,60.88
2022-10-22T05:48:18.153Z,60.78
2022-10-22T05:50:50.841Z,60.70
2022-10-22T05:53:22.782Z,60.62
2022-10-22T05:55:54.650Z,60.63
2022-10-22T05:58:28.838Z,60.46
2022-10-22T06:01:06.080Z,60.46
2022-10-22T06:03:37.879Z,60.41
2022-10-22T06:06:18.540Z,60.21
2022-10-22T06:08:52.070Z,60.00
2022-10-22T06:11:25.195Z,60.01
2022-10-22T06:13:56.958Z,59.73
2022-10-22T06:16:31.622Z,59.77
2022-10-22T06:19:03.931Z,59.56
2022-10-22T06:21:38.163Z,59.44
2022-10-22T06:24:11.540Z,59.34
2022-10-22T06:26:43.255Z,59.14
2022-10-22T06:29:15.108Z,59.07
2022-10-22T06:31:47.695Z,58.83
2022-10-22T06:34:20.047Z,58.70
2022-10-22T06:36:52.160Z,58.74
2022-10-22T06:39:24.000Z,58.58
2022-10-22T06:41:55.886Z,58.40
2022-10-22T06:44:27.728Z,58.24
2022-10-22T06:46:59.402Z,58.33
2022-10-22T06:49:31.226Z,58.23
2022-10-22T06:52:03.719Z,58.10
2022-10-22T06:54:35.406Z,58.17
2022-10-22T06:57:07.778Z,58.19
2022-10-22T06:59:40.269Z,57.97
2022-10-22T07:02:12.350Z,57.89
2022-10-22T07:04:44.511Z,57.69
2022-10-22T07:07:16.317Z,57.70
2022-10-22T07:09:50.601Z,57.47
2022-10-22T07:12:23.295Z,57.33
2022-10-22T07:14:55.063Z,57.01
2022-10-22T07:17:26.977Z,56.51
2022-10-22T07:19:58.742Z,56.41
2022-10-22T07:22:30.771Z,55.71
2022-10-22T07:25:06.605Z,55.63
2022-10-22T07:27:40.524Z,55.32
2022-10-22T07:30:13.820Z,55.53
2022-10-22T07:32:47.857Z,55.36
2022-10-22T07:35:19.795Z,54.94
2022-10-22T07:37:51.684Z,54.92
2022-10-22T07:40:23.917Z,54.68
2022-10-22T07:42:55.652Z,54.58
2022-10-22T07:45:27.340Z,54.33
2022-10-22T07:48:00.627Z,54.18
2022-10-22T07:50:32.563Z,54.32
2022-10-22T07:53:04.459Z,54.66
2022-10-22T07:55:36.801Z,54.32
2022-10-22T07:58:08.881Z,54.33
2022-10-22T08:00:40.635Z,54.40
2022-10-22T08:03:14.047Z,54.31
2022-10-22T08:05:49.511Z,54.00
2022-10-22T08:08:22.692Z,53.82
2022-10-22T08:10:58.696Z,53.88
2022-10-22T08:13:31.577Z,53.65
2022-10-22T08:16:03.647Z,53.69
2022-10-22T08:18:35.510Z,53.82
2022-10-22T08:21:07.787Z,53.42
2022-10-22T08:23:40.173Z,53.32
2022-10-22T08:26:12.406Z,53.13
2022-10-22T08:28:44.145Z,52.82
2022-10-22T08:31:15.984Z,52.72
2022-10-22T08:33:47.924Z,52.51
2022-10-22T08:36:19.787Z,52.33
2022-10-22T08:38:51.678Z,52.15
2022-10-22T08:41:25.209Z,52.15
2022-10-22T08:44:17.325Z,52.20
2022-10-22T08:47:21.386Z,52.36
2022-10-22T08:49:57.121Z,52.13
2022-10-22T08:52:29.339Z,51.67
2022-10-22T08:55:03.313Z,51.50
2022-10-22T08:57:52.582Z,51.39
2022-10-22T09:00:32.236Z,51.58
2022-10-22T09:03:17.288Z,51.59
2022-10-22T09:06:03.163Z,51.44
2022-10-22T09:08:36.238Z,51.28
2022-10-22T09:11:15.215Z,51.16
2022-10-22T09:13:49.582Z,50.99
2022-10-22T09:16:25.398Z,50.87
2022-10-22T09:19:11.053Z,50.79
2022-10-22T09:21:52.675Z,51.14
2022-10-22T09:24:35.102Z,49.94
2022-10-22T09:27:14.118Z,50.15
2022-10-22T09:29:48.102Z,50.07
2022-10-22T09:32:20.856Z,49.04
2022-10-22T09:34:56.597Z,48.83
2022-10-22T09:37:31.188Z,49.12
2022-10-22T09:40:06.717Z,49.00
2022-10-22T09:42:38.915Z,48.90
2022-10-22T09:45:20.545Z,48.98
2022-10-22T09:48:04.219Z,49.23
2022-10-22T09:50:45.110Z,48.74
2022-10-22T09:53:19.659Z,49.18
2022-10-22T09:58:28.256Z,48.82
2022-10-22T10:01:02.062Z,48.09
2022-10-22T10:03:35.025Z,48.35
2022-10-22T10:06:07.479Z,48.69
2022-10-22T10:08:39.772Z,48.24
2022-10-22T10:11:17.713Z,48.58
2022-10-22T10:13:53.821Z,48.93
2022-10-22T10:16:43.091Z,49.47
2022-10-22T10:19:28.434Z,49.13
2022-10-22T10:22:14.328Z,48.54
2022-10-22T10:25:03.236Z,48.53
2022-10-22T10:27:39.341Z,48.33
2022-10-22T10:30:17.192Z,47.96
2022-10-22T10:33:03.553Z,48.41
2022-10-22T10:35:43.803Z,47.86
2022-10-22T10:38:31.460Z,47.88
2022-10-22T10:41:14.183Z,47.48
2022-10-22T10:43:55.499Z,47.63
2022-10-22T10:46:37.255Z,48.06
2022-10-22T10:49:16.767Z,47.87
2022-10-22T10:51:55.531Z,47.67
2022-10-22T10:57:23.337Z,47.78
2022-10-22T11:00:06.964Z,47.82
2022-10-22T11:03:16.863Z,47.05
2022-10-22T11:05:54.360Z,47.56
2022-10-22T11:08:31.203Z,47.30
2022-10-22T11:11:07.770Z,47.21
2022-10-22T11:13:44.461Z,46.85
2022-10-22T11:16:22.264Z,46.82
2022-10-22T11:18:59.651Z,46.76
2022-10-22T11:21:40.362Z,46.79
2022-10-22T11:24:18.172Z,47.03
2022-10-22T11:26:54.479Z,47.22
2022-10-22T11:29:32.835Z,47.46
2022-10-22T11:32:07.547Z,47.57
2022-10-22T11:34:46.718Z,47.51
2022-10-22T11:37:20.112Z,47.45
2022-10-22T11:39:55.735Z,47.95
2022-10-22T11:42:36.509Z,47.52
2022-10-22T11:45:29.645Z,47.73
2022-10-22T11:48:16.098Z,48.15
2022-10-22T11:50:52.889Z,48.10
2022-10-22T11:53:33.331Z,48.08
2022-10-22T11:56:26.124Z,48.52
2022-10-22T11:58:57.921Z,48.54
2022-10-22T12:01:40.928Z,49.06
2022-10-22T12:04:24.144Z,49.07
2022-10-22T12:07:01.884Z,48.96
2022-10-22T12:09:41.440Z,49.25
2022-10-22T12:12:17.130Z,49.53
2022-10-22T12:14:59.375Z,49.47
2022-10-22T12:17:32.199Z,49.66
2022-10-22T12:20:08.961Z,49.84
2022-10-22T12:22:41.400Z,50.19
2022-10-22T12:25:22.241Z,50.21
2022-10-22T12:27:57.416Z,50.49
2022-10-22T12:30:34.621Z,50.67
2022-10-22T12:33:08.538Z,51.04
2022-10-22T12:35:47.713Z,51.72
2022-10-22T12:38:21.526Z,52.10
2022-10-22T12:40:56.126Z,52.87
2022-10-22T12:43:30.539Z,53.28
2022-10-22T12:46:02.940Z,53.85
2022-10-22T12:48:39.705Z,53.99
2022-10-22T12:51:16.026Z,54.20
2022-10-22T12:53:50.550Z,54.67
2022-10-22T12:56:26.470Z,54.78
2022-10-22T12:59:02.021Z,54.93
2022-10-22T13:01:38.149Z,54.95
2022-10-22T13:04:32.395Z,55.35
2022-10-22T13:07:22.288Z,55.45
2022-10-22T13:10:01.494Z,55.93
2022-10-22T13:12:39.683Z,56.60
2022-10-22T13:15:38.655Z,57.22
2022-10-22T13:18:20.669Z,58.07
2022-10-22T13:20:58.935Z,59.15
2022-10-22T13:23:32.518Z,59.96
2022-10-22T13:26:14.738Z,60.71
2022-10-22T13:28:53.662Z,64.66
2022-10-22T13:31:32.182Z,66.96
2022-10-22T13:34:11.832Z,64.97
2022-10-22T13:36:46.067Z,62.90
2022-10-22T13:39:20.583Z,59.12
2022-10-22T13:41:52.840Z,56.18
2022-10-22T13:44:24.819Z,56.20
2022-10-22T13:46:56.866Z,57.23
2022-10-22T13:49:28.574Z,57.82
2022-10-22T13:52:01.213Z,59.10
2022-10-22T13:54:33.068Z,59.83
2022-10-22T13:57:07.125Z,60.60
2022-10-22T13:59:38.809Z,64.63
2022-10-22T14:02:14.364Z,67.51
2022-10-22T14:04:46.497Z,66.11
2022-10-22T14:07:18.512Z,63.58
2022-10-22T14:09:50.221Z,61.95
2022-10-22T14:12:22.122Z,58.96
2022-10-22T14:14:54.057Z,56.77
2022-10-22T14:17:26.011Z,57.37
2022-10-22T14:19:57.867Z,58.10
2022-10-22T14:22:30.348Z,59.29
2022-10-22T14:25:02.125Z,60.64
2022-10-22T14:27:34.008Z,64.94
2022-10-22T14:30:07.045Z,67.62
2022-10-22T14:32:39.002Z,65.69
2022-10-22T14:35:14.790Z,63.52
2022-10-22T14:37:46.549Z,62.15
2022-10-22T14:40:20.948Z,61.53
2022-10-22T14:42:52.745Z,60.61
2022-10-22T14:45:26.416Z,58.25
2022-10-22T14:47:58.397Z,57.05
2022-10-22T14:50:30.455Z,58.16
2022-10-22T14:53:02.152Z,59.70
2022-10-22T14:55:33.844Z,63.19
2022-10-22T14:58:05.607Z,66.17
2022-10-22T15:00:38.417Z,65.44
2022-10-22T15:03:10.341Z,63.98
2022-10-22T15:05:45.569Z,62.97
2022-10-22T15:08:17.265Z,62.18
2022-10-22T15:10:58.054Z,61.24
2022-10-22T15:13:31.015Z,60.99
2022-10-22T15:16:03.231Z,60.54
2022-10-22T15:18:35.103Z,60.12
2022-10-22T15:21:13.990Z,58.60
2022-10-22T15:23:45.723Z,57.57
2022-10-22T15:26:18.056Z,59.09
2022-10-22T15:28:49.748Z,62.37
2022-10-22T15:31:45.444Z,65.70
2022-10-22T15:34:21.051Z,64.88
2022-10-22T15:36:54.919Z,63.51
2022-10-22T15:39:27.560Z,62.85
2022-10-22T15:41:59.990Z,62.20
2022-10-22T15:44:33.174Z,61.66
2022-10-22T15:47:06.405Z,61.34
2022-10-22T15:49:41.791Z,60.87
2022-10-22T15:52:13.450Z,60.62
2022-10-22T15:54:45.096Z,60.53
2022-10-22T15:57:16.761Z,60.52
2022-10-22T15:59:50.131Z,60.41
2022-10-22T16:02:21.835Z,60.48
2022-10-22T16:04:53.513Z,60.60
2022-10-22T16:07:25.301Z,60.55
2022-10-22T16:10:01.691Z,60.38
2022-10-22T16:12:33.415Z,60.50
2022-10-22T16:15:05.448Z,60.40
2022-10-22T16:17:37.313Z,60.36
2022-10-22T16:20:10.711Z,60.72
2022-10-22T16:22:42.562Z,60.18
2022-10-22T16:25:14.823Z,60.15
2022-10-22T16:27:49.729Z,60.38
2022-10-22T16:30:21.747Z,60.62
2022-10-22T16:32:53.432Z,60.40
2022-10-22T16:35:25.118Z,60.52
2022-10-22T16:37:57.360Z,60.26
2022-10-22T16:40:29.286Z,60.39
2022-10-22T16:43:00.934Z,60.12
2022-10-22T16:45:32.772Z,60.20
2022-10-22T16:48:04.588Z,60.02
2022-10-22T16:50:39.797Z,60.23
2022-10-22T16:53:11.903Z,60.40
2022-10-22T16:55:43.615Z,60.34
2022-10-22T16:58:15.302Z,60.26
2022-10-22T17:00:47.999Z,60.25
2022-10-22T17:03:19.668Z,60.12
2022-10-22T17:05:51.411Z,60.13
2022-10-22T17:08:23.185Z,59.95
2022-10-22T17:10:54.864Z,59.90
2022-10-22T17:13:26.737Z,59.61
2022-10-22T17:16:04.962Z,58.26
2022-10-22T17:18:41.819Z,57.70
2022-10-22T17:21:14.556Z,59.11
2022-10-22T17:23:46.905Z,63.51
2022-10-22T17:26:20.946Z,66.38
2022-10-22T17:28:53.604Z,65.60
2022-10-22T17:31:26.787Z,63.95
2022-10-22T17:34:00.054Z,63.08
2022-10-22T17:36:35.647Z,62.09
2022-10-22T17:39:09.194Z,61.63
2022-10-22T17:41:40.990Z,61.27
2022-10-22T17:44:14.899Z,61.05
2022-10-22T17:46:49.604Z,60.62
2022-10-22T17:49:22.221Z,60.16
2022-10-22T17:51:54.025Z,59.76
2022-10-22T17:54:25.806Z,57.77
2022-10-22T17:56:57.487Z,57.21
2022-10-22T17:59:29.208Z,58.58
2022-10-22T18:02:02.318Z,62.90
2022-10-22T18:04:34.977Z,65.57
2022-10-22T18:07:06.703Z,64.84
2022-10-22T18:09:39.963Z,63.48
2022-10-22T18:12:13.774Z,62.51
2022-10-22T18:14:45.551Z,61.91
2022-10-22T18:17:17.243Z,61.29
2022-10-22T18:19:50.561Z,60.49
2022-10-22T18:22:22.473Z,60.37
2022-10-22T18:24:54.506Z,60.20
2022-10-22T18:27:26.248Z,59.71
2022-10-22T18:29:57.922Z,57.74
2022-10-22T18:32:29.612Z,57.36
2022-10-22T18:35:01.454Z,58.88
2022-10-22T18:37:36.128Z,63.01
2022-10-22T18:40:13.665Z,65.87
2022-10-22T18:42:46.441Z,64.75
2022-10-22T18:45:18.490Z,64.20
2022-10-22T18:47:50.627Z,63.51
2022-10-22T18:50:22.435Z,62.79
2022-10-22T18:52:54.253Z,62.25
2022-10-22T18:55:25.943Z,61.78
2022-10-22T18:57:57.606Z,61.69
2022-10-22T19:00:29.287Z,61.46
2022-10-22T19:03:01.338Z,61.61
2022-10-22T19:05:33.203Z,61.47
2022-10-22T19:08:04.961Z,61.11
2022-10-22T19:10:38.641Z,60.87
2022-10-22T19:13:10.368Z,60.89
2022-10-22T19:15:42.576Z,60.76
2022-10-22T19:18:16.320Z,60.75
2022-10-22T19:20:49.076Z,60.31
2022-10-22T19:23:20.955Z,60.26
2022-10-22T19:26:02.886Z,60.15
2022-10-22T19:28:34.785Z,60.15
2022-10-22T19:31:10.720Z,60.25
2022-10-22T19:33:43.275Z,60.11
2022-10-22T19:36:16.581Z,59.84
2022-10-22T19:38:49.841Z,59.74
2022-10-22T19:41:22.837Z,59.74
2022-10-22T19:43:56.204Z,59.67
2022-10-22T19:46:29.751Z,59.52
2022-10-22T19:49:03.009Z,59.83
2022-10-22T19:51:35.248Z,59.98
2022-10-22T19:54:10.337Z,59.87
2022-10-22T19:56:43.077Z,60.04
2022-10-22T19:59:14.987Z,59.91
2022-10-22T20:01:46.730Z,60.34
2022-10-22T20:04:19.833Z,60.41
2022-10-22T20:06:51.652Z,60.24
2022-10-22T20:09:25.862Z,60.43
2022-10-22T20:11:57.624Z,60.72
2022-10-22T20:14:29.383Z,61.10
2022-10-22T20:17:01.046Z,61.27
2022-10-22T20:19:33.674Z,61.52
2022-10-22T20:22:05.627Z,61.07
2022-10-22T20:24:37.303Z,60.85
2022-10-22T20:27:09.328Z,61.03
2022-10-22T20:29:41.132Z,61.51
2022-10-22T20:32:13.359Z,61.67
2022-10-22T20:34:45.049Z,61.65
2022-10-22T20:37:16.722Z,61.89
2022-10-22T20:39:49.893Z,62.08
2022-10-22T20:42:21.569Z,62.14
2022-10-22T20:44:53.365Z,62.15
2022-10-22T20:47:34.194Z,62.23
2022-10-22T20:50:16.553Z,62.68
2022-10-22T20:52:48.267Z,62.83
2022-10-22T20:55:21.433Z,62.74
2022-10-22T20:57:53.364Z,62.67
2022-10-22T21:00:25.116Z,62.95
2022-10-22T21:02:58.307Z,63.16
2022-10-22T21:05:30.074Z,63.26
2022-10-22T21:08:04.924Z,63.42
2022-10-22T21:10:36.980Z,63.51
2022-10-22T21:13:08.707Z,63.63
2022-10-22T21:15:40.433Z,63.76
2022-10-22T21:18:12.180Z,63.76
2022-10-22T21:20:44.281Z,63.98
2022-10-22T21:23:15.971Z,63.94
2022-10-22T21:25:58.665Z,64.00
2022-10-22T21:31:09.897Z,64.48
2022-10-22T21:33:42.032Z,63.70
2022-10-22T21:36:13.699Z,63.02
2022-10-22T21:38:45.603Z,62.60
2022-10-22T21:41:19.844Z,62.34
2022-10-22T21:43:51.820Z,62.11
2022-10-22T21:46:25.710Z,61.92
2022-10-22T21:48:59.281Z,62.20
2022-10-22T21:51:32.103Z,62.22
2022-10-22T21:54:04.068Z,62.32
2022-10-22T21:56:37.780Z,62.73
2022-10-22T21:59:10.098Z,62.99
2022-10-22T22:01:41.852Z,63.06
2022-10-22T22:04:13.599Z,62.80
2022-10-22T22:06:45.393Z,63.16
2022-10-22T22:09:18.268Z,63.08
2022-10-22T22:11:50.037Z,62.88
2022-10-22T22:14:21.770Z,62.97
2022-10-22T22:16:53.519Z,63.42
2022-10-22T22:19:25.206Z,63.45
2022-10-22T22:21:56.991Z,63.50
2022-10-22T22:24:29.079Z,63.40
2022-10-22T22:27:00.740Z,63.69
2022-10-22T22:29:32.454Z,63.76
2022-10-22T22:32:04.579Z,63.65
2022-10-22T22:34:36.256Z,63.95
2022-10-22T22:37:08.698Z,64.16
2022-10-22T22:39:40.429Z,63.67
2022-10-22T22:42:12.095Z,63.75
2022-10-22T22:44:44.287Z,63.52
2022-10-22T22:47:15.941Z,63.46
2022-10-22T22:49:47.585Z,63.46
2022-10-22T22:54:55.882Z,63.52
2022-10-22T22:57:29.822Z,63.53
2022-10-22T23:00:01.551Z,63.66
2022-10-22T23:02:33.248Z,64.02
2022-10-22T23:05:05.201Z,64.26
2022-10-22T23:07:36.900Z,64.05
2022-10-22T23:10:09.790Z,64.12
2022-10-22T23:12:41.759Z,64.07
2022-10-22T23:15:16.996Z,64.04
2022-10-22T23:17:48.655Z,64.33
2022-10-22T23:20:20.595Z,64.29
2022-10-22T23:22:52.273Z,64.25
2022-10-22T23:25:23.940Z,63.86
2022-10-22T23:27:56.422Z,63.67
2022-10-22T23:30:28.154Z,63.70
2022-10-22T23:32:59.867Z,63.89
2022-10-22T23:35:31.541Z,63.92
2022-10-22T23:38:03.186Z,63.91
2022-10-22T23:40:34.897Z,63.90
2022-10-22T23:43:08.615Z,63.69
2022-10-22T23:45:40.296Z,63.82
2022-10-22T23:48:11.933Z,63.85
2022-10-22T23:50:43.687Z,63.91
2022-10-22T23:53:17.910Z,64.11
2022-10-22T23:55:49.874Z,64.22
2022-10-22T23:58:21.584Z,64.27
